Time;durP1;ratioP1;P1;durP2;ratioP2;P2;SDS_P1;SDS_P2;PMS_P1;PMS_P2;Temp;Humidity;BMP_temperature;BMP_pressure;BME280_temperature;BME280_humidity;BME280_pressure;Samples;Min_cycle;Max_cycle;Signal;HPM_P1;HPM_P2
2022/05/17 00:02:04;;;;;;;0.50;0.50;;;;;;;6.10;85.46;97985.59;4993682;28;20056;-83
2022/05/17 00:04:32;;;;;;;0.60;0.60;;;;;;;6.02;85.61;97970.72;4994885;28;20394;-83
2022/05/17 00:07:01;;;;;;;0.60;0.60;;;;;;;5.96;85.62;97945.72;4994390;28;20046;-83
2022/05/17 00:09:28;;;;;;;0.60;0.60;;;;;;;6.08;86.13;97970.59;4993126;28;20054;-83
2022/05/17 00:11:59;;;;;;;0.55;0.55;;;;;;;6.06;86.34;97970.00;4993146;28;20050;-82
2022/05/17 00:14:27;;;;;;;0.60;0.60;;;;;;;5.96;86.79;97955.63;4993281;28;20054;-82
2022/05/17 00:16:54;;;;;;;0.60;0.60;;;;;;;5.88;87.22;97947.97;4994275;28;20047;-82
2022/05/17 00:19:21;;;;;;;0.50;0.50;;;;;;;5.75;87.21;97933.00;4993210;28;20050;-82
2022/05/17 00:21:49;;;;;;;0.50;0.50;;;;;;;5.85;88.00;97943.91;4994005;28;20108;-83
2022/05/17 00:24:18;;;;;;;0.60;0.60;;;;;;;5.89;88.29;97955.72;4993305;28;20047;-82
2022/05/17 00:26:45;;;;;;;0.60;0.60;;;;;;;5.92;88.72;97965.97;4993121;28;20085;-82
2022/05/17 00:29:13;;;;;;;0.60;0.60;;;;;;;5.93;89.00;97962.25;5008696;28;20145;-84
2022/05/17 00:31:40;;;;;;;0.60;0.60;;;;;;;5.95;89.51;97967.38;4994071;28;20077;-81
2022/05/17 00:34:08;;;;;;;0.52;0.52;;;;;;;5.92;89.38;97957.13;5008924;28;20050;-83
2022/05/17 00:36:35;;;;;;;0.60;0.60;;;;;;;5.91;89.47;97963.53;4994128;28;20054;-82
2022/05/17 00:39:03;;;;;;;0.60;0.60;;;;;;;5.81;89.99;97950.78;5004162;28;20068;-82
2022/05/17 00:41:30;;;;;;;0.60;0.60;;;;;;;5.70;90.07;97940.91;5012317;28;20419;-81
2022/05/17 00:46:51;;;;;;;0.60;0.60;;;;;;;5.83;90.59;97940.63;5013973;28;20057;-83
2022/05/17 00:49:47;;;;;;;0.50;0.50;;;;;;;5.81;90.91;97948.91;5013220;28;20068;-81
2022/05/17 00:52:29;;;;;;;;;;;;;;;5.77;91.28;97930.88;5013762;28;20050;-82
2022/05/17 00:54:59;;;;;;;0.50;0.50;;;;;;;5.70;91.34;97925.69;5011883;28;19925;-81
2022/05/17 00:57:37;;;;;;;0.60;0.60;;;;;;;5.81;91.88;97932.84;5007930;28;20061;-82
2022/05/17 01:00:09;;;;;;;0.60;0.60;;;;;;;5.65;91.67;97921.03;4989551;28;20058;-82
2022/05/17 01:02:36;;;;;;;0.50;0.50;;;;;;;5.74;92.10;97936.72;5001076;28;20054;-82
2022/05/17 01:05:04;;;;;;;0.60;0.60;;;;;;;5.52;92.21;97899.91;5013256;28;20049;-82
2022/05/17 01:07:37;;;;;;;0.50;0.50;;;;;;;5.59;92.41;97918.50;5012095;28;20049;-81
2022/05/17 01:10:05;;;;;;;0.50;0.50;;;;;;;5.61;92.66;97917.19;5011555;28;20529;-82
2022/05/17 01:12:36;;;;;;;0.60;0.60;;;;;;;5.50;92.93;97887.81;5011783;28;20192;-83
2022/05/17 01:15:06;;;;;;;0.60;0.60;;;;;;;5.70;93.07;97924.84;5011638;28;20116;-83
2022/05/17 01:17:37;;;;;;;0.50;0.50;;;;;;;5.70;93.03;97930.19;5011845;28;20419;-81
2022/05/17 01:20:09;;;;;;;0.60;0.60;;;;;;;5.57;93.28;97896.50;5011415;28;20077;-82
2022/05/17 01:22:36;;;;;;;0.60;0.60;;;;;;;5.69;93.47;97920.56;5013081;28;20092;-82
2022/05/17 01:25:04;;;;;;;0.50;0.50;;;;;;;5.71;93.44;97911.22;5011349;28;20128;-83
2022/05/17 01:27:39;;;;;;;0.50;0.50;;;;;;;5.73;93.57;97917.16;5012922;28;20104;-82
2022/05/17 01:30:06;;;;;;;;;;;;;;;5.69;93.30;97916.00;4995367;28;20081;-82
2022/05/17 01:32:34;;;;;;;0.60;0.60;;;;;;;5.52;93.52;97907.94;5012797;28;19971;-82
2022/05/17 01:35:01;;;;;;;0.60;0.60;;;;;;;5.49;93.57;97891.53;5010984;28;20137;-82
2022/05/17 01:37:29;;;;;;;0.50;0.50;;;;;;;5.75;93.89;97919.63;5011455;28;20099;-82
2022/05/17 01:39:56;;;;;;;0.60;0.60;;;;;;;5.79;93.83;97910.03;5012318;28;20088;-82
2022/05/17 01:42:23;;;;;;;0.52;0.52;;;;;;;5.77;93.82;97918.31;5011083;28;20419;-81
2022/05/17 01:44:51;;;;;;;0.60;0.60;;;;;;;5.67;94.12;97898.56;5011106;28;20140;-83
2022/05/17 01:47:18;;;;;;;0.60;0.60;;;;;;;5.73;94.08;97914.47;5011178;28;20137;-82
2022/05/17 01:49:45;;;;;;;0.50;0.50;;;;;;;5.61;93.92;97885.09;5011339;28;20085;-82
2022/05/17 01:52:12;;;;;;;0.50;0.50;;;;;;;5.75;94.19;97903.56;5027358;28;20417;-81
2022/05/17 01:54:39;;;;;;;0.60;0.60;;;;;;;5.77;94.00;97910.28;5012417;28;20050;-82
2022/05/17 01:57:06;;;;;;;0.60;0.60;;;;;;;5.78;93.99;97917.25;5012198;28;20073;-83
2022/05/17 01:59:34;;;;;;;0.60;0.60;;;;;;;5.67;93.98;97898.56;5012491;28;20054;-82
2022/05/17 02:02:02;;;;;;;0.60;0.60;;;;;;;5.81;94.12;97910.59;5012181;28;20096;-83
2022/05/17 02:04:31;;;;;;;0.55;0.55;;;;;;;5.67;93.87;97887.84;5012380;28;20057;-83
2022/05/17 02:06:59;;;;;;;0.60;0.60;;;;;;;5.76;94.08;97907.84;5011583;28;20077;-83
2022/05/17 02:09:27;;;;;;;0.50;0.50;;;;;;;5.76;94.35;97897.13;5011816;28;20045;-82
2022/05/17 02:11:54;;;;;;;0.60;0.60;;;;;;;5.72;94.26;97872.72;5012098;28;20136;-82
2022/05/17 02:14:23;;;;;;;0.60;0.60;;;;;;;5.62;94.09;97891.25;5010922;28;20069;-83
2022/05/17 02:16:50;;;;;;;0.60;0.60;;;;;;;5.66;94.12;97897.75;5011833;28;20061;-82
2022/05/17 02:19:19;;;;;;;0.50;0.50;;;;;;;5.81;94.38;97915.97;5012119;28;20050;-82
2022/05/17 02:21:48;;;;;;;0.50;0.50;;;;;;;5.79;94.48;97918.06;5010771;28;20104;-82
2022/05/17 02:24:16;;;;;;;0.60;0.60;;;;;;;5.64;94.51;97881.91;5011746;28;20049;-82
2022/05/17 02:26:43;;;;;;;0.57;0.57;;;;;;;5.83;94.82;97900.47;5011702;28;20096;-82
2022/05/17 02:29:10;;;;;;;0.60;0.60;;;;;;;5.86;95.19;97916.84;5010441;28;20050;-83
2022/05/17 02:31:37;;;;;;;0.60;0.60;;;;;;;5.73;95.35;97892.25;5011706;28;20050;-82
2022/05/17 02:34:04;;;;;;;0.60;0.60;;;;;;;5.72;94.98;97901.31;5011429;28;20056;-83
2022/05/17 02:36:32;;;;;;;0.50;0.50;;;;;;;5.80;95.05;97903.63;5011834;28;20054;-82
2022/05/17 02:38:59;;;;;;;0.60;0.60;;;;;;;5.72;95.45;97894.13;5011231;28;20053;-81
2022/05/17 02:41:26;;;;;;;0.60;0.60;;;;;;;5.69;95.55;97888.44;5010594;28;20053;-82
2022/05/17 02:43:53;;;;;;;0.52;0.52;;;;;;;5.76;95.45;97897.94;5011440;28;20064;-82
2022/05/17 02:46:20;;;;;;;0.60;0.60;;;;;;;5.87;95.71;97898.91;4994233;28;20500;-82
2022/05/17 02:48:47;;;;;;;0.50;0.50;;;;;;;5.83;95.65;97903.16;5011466;28;20045;-82
2022/05/17 02:51:18;;;;;;;0.60;0.60;;;;;;;5.73;95.74;97878.88;5011440;28;20049;-82
2022/05/17 02:53:45;;;;;;;0.60;0.60;;;;;;;5.78;96.18;97869.06;5010779;28;20211;-82
2022/05/17 02:56:12;;;;;;;0.47;0.47;;;;;;;5.99;95.93;97899.72;5011613;28;20042;-82
2022/05/17 02:58:40;;;;;;;0.60;0.60;;;;;;;5.79;95.90;97884.06;5010331;28;20144;-81
2022/05/17 03:01:07;;;;;;;0.60;0.60;;;;;;;5.85;95.32;97893.03;5008782;28;20045;-81
2022/05/17 03:03:39;;;;;;;0.60;0.60;;;;;;;5.78;95.55;97895.84;5010765;28;20398;-81
2022/05/17 03:06:07;;;;;;;0.50;0.50;;;;;;;5.79;95.24;97897.44;5009814;28;20429;-82
2022/05/17 03:08:34;;;;;;;0.60;0.60;;;;;;;5.83;95.58;97895.13;5011372;28;20133;-83
2022/05/17 03:11:02;;;;;;;0.60;0.60;;;;;;;5.86;95.38;97889.28;5011223;28;20050;-82
2022/05/17 03:13:29;;;;;;;0.60;0.60;;;;;;;5.86;95.75;97881.25;5010125;28;20137;-82
2022/05/17 03:15:56;;;;;;;0.60;0.60;;;;;;;5.78;95.22;97876.28;5010934;28;20085;-82
2022/05/17 03:18:23;;;;;;;0.60;0.60;;;;;;;5.81;95.62;97875.81;5011297;28;20045;-82
2022/05/17 03:20:51;;;;;;;0.60;0.60;;;;;;;5.83;95.64;97873.69;5011509;28;20469;-82
2022/05/17 03:23:18;;;;;;;0.60;0.60;;;;;;;5.79;95.53;97876.03;5010353;28;20444;-83
2022/05/17 03:25:46;;;;;;;0.60;0.60;;;;;;;5.89;95.63;97896.81;5011301;28;20058;-81
2022/05/17 03:28:13;;;;;;;0.60;0.60;;;;;;;5.88;95.48;97889.03;4993774;28;20062;-83
2022/05/17 03:30:41;;;;;;;0.50;0.50;;;;;;;5.84;95.41;97883.34;5011021;28;20057;-82
2022/05/17 03:33:09;;;;;;;0.60;0.60;;;;;;;5.88;95.65;97894.41;5010769;28;20105;-82
2022/05/17 03:35:36;;;;;;;0.60;0.60;;;;;;;5.91;95.54;97894.72;5010042;28;20128;-82
2022/05/17 03:38:03;;;;;;;0.60;0.60;;;;;;;5.93;95.59;97894.50;5010887;28;20042;-81
2022/05/17 03:40:30;;;;;;;0.60;0.60;;;;;;;5.79;95.80;97875.22;4993781;28;20093;-82
2022/05/17 03:42:58;;;;;;;0.50;0.50;;;;;;;5.89;95.60;97883.44;4993534;28;20054;-82
2022/05/17 03:45:25;;;;;;;0.70;0.70;;;;;;;6.01;95.58;97900.28;5009591;28;20104;-82
2022/05/17 03:47:52;;;;;;;0.60;0.60;;;;;;;5.88;95.48;97876.47;5011179;28;20076;-82
2022/05/17 03:50:19;;;;;;;0.60;0.60;;;;;;;5.94;95.47;97880.06;5019609;28;20060;-81
2022/05/17 03:52:47;;;;;;;0.60;0.60;;;;;;;5.94;95.58;97886.22;5035743;28;20065;-81
2022/05/17 03:55:14;;;;;;;0.60;0.60;;;;;;;6.08;95.43;97898.25;5028428;28;20119;-82
2022/05/17 03:57:42;;;;;;;0.60;0.60;;;;;;;6.15;95.30;97895.41;5011568;28;20053;-82
2022/05/17 04:00:10;;;;;;;0.60;0.60;;;;;;;6.20;95.04;97900.88;5011247;28;20058;-82
2022/05/17 04:02:40;;;;;;;0.60;0.60;;;;;;;6.14;94.80;97887.63;5011043;28;20119;-83
2022/05/17 04:05:09;;;;;;;0.60;0.60;;;;;;;6.15;94.58;97892.72;5012439;28;20451;-82
2022/05/17 04:07:38;;;;;;;0.60;0.60;;;;;;;6.15;94.74;97891.94;5012801;28;20058;-82
2022/05/17 04:10:14;;;;;;;0.50;0.50;;;;;;;6.27;94.42;97893.47;5012355;28;20057;-82
2022/05/17 04:12:41;;;;;;;0.60;0.60;;;;;;;6.37;94.32;97892.81;5012531;28;20054;-83
2022/05/17 04:15:12;;;;;;;0.70;0.70;;;;;;;6.39;94.31;97879.19;4996335;28;20428;-83
2022/05/17 04:17:40;;;;;;;0.55;0.55;;;;;;;6.45;93.82;97905.00;5012200;28;20065;-81
2022/05/17 04:20:14;;;;;;;0.60;0.60;;;;;;;6.35;93.92;97891.44;4992222;28;20446;-82
2022/05/17 04:22:43;;;;;;;0.60;0.60;;;;;;;6.28;93.33;97879.03;5012288;28;20050;-82
2022/05/17 04:25:11;;;;;;;0.60;0.60;;;;;;;6.20;93.45;97879.44;5012341;28;20057;-82
2022/05/17 04:27:38;;;;;;;0.60;0.60;;;;;;;6.17;93.60;97869.19;5013810;28;20050;-83
2022/05/17 04:30:06;;;;;;;0.52;0.52;;;;;;;6.22;93.51;97868.47;4989389;28;20140;-84
2022/05/17 04:32:33;;;;;;;0.60;0.60;;;;;;;6.24;93.59;97875.22;5012181;28;20060;-82
2022/05/17 04:35:00;;;;;;;0.50;0.50;;;;;;;6.33;93.65;97872.13;5010623;28;20149;-83
2022/05/17 04:37:29;;;;;;;0.60;0.60;;;;;;;6.42;93.34;97892.09;5011508;28;20056;-83
2022/05/17 04:39:56;;;;;;;0.60;0.60;;;;;;;6.34;92.96;97866.53;5016210;28;20050;-82
2022/05/17 04:42:23;;;;;;;0.50;0.50;;;;;;;6.57;92.46;97889.63;5011284;28;20054;-84
2022/05/17 04:44:50;;;;;;;0.50;0.50;;;;;;;6.46;92.60;97869.13;5012188;28;20038;-83
2022/05/17 04:47:18;;;;;;;0.60;0.60;;;;;;;6.67;92.21;97886.31;5011550;28;20466;-82
2022/05/17 04:49:45;;;;;;;0.60;0.60;;;;;;;6.55;92.00;97861.47;5013690;28;20058;-83
2022/05/17 04:52:13;;;;;;;0.50;0.50;;;;;;;6.73;91.64;97885.31;5022590;28;20049;-82
2022/05/17 04:54:42;;;;;;;0.50;0.50;;;;;;;6.68;91.31;97886.06;5012810;28;20509;-83
2022/05/17 04:57:09;;;;;;;0.50;0.50;;;;;;;6.77;91.15;97891.00;5011193;28;20069;-83
2022/05/17 04:59:36;;;;;;;0.50;0.50;;;;;;;6.67;91.17;97865.66;5012987;28;20429;-83
2022/05/17 05:02:04;;;;;;;0.60;0.60;;;;;;;6.84;90.83;97891.66;5012608;28;20123;-82
2022/05/17 05:04:31;;;;;;;0.50;0.50;;;;;;;6.77;90.64;97888.31;5007408;28;20105;-83
2022/05/17 05:06:59;;;;;;;0.50;0.50;;;;;;;6.65;90.64;97877.69;5013932;28;20049;-84
2022/05/17 05:09:28;;;;;;;0.60;0.60;;;;;;;6.61;91.22;97880.06;5007097;28;20133;-83
2022/05/17 05:11:55;;;;;;;0.60;0.60;;;;;;;6.57;90.83;97875.44;5010985;28;20095;-83
2022/05/17 05:14:24;;;;;;;0.55;0.55;;;;;;;6.44;90.95;97874.72;4994836;28;20141;-81
2022/05/17 05:16:51;;;;;;;0.50;0.50;;;;;;;6.50;91.26;97884.44;5000088;28;22022;-83
2022/05/17 05:19:18;;;;;;;0.60;0.60;;;;;;;6.49;91.61;97890.06;4991783;28;20073;-82
2022/05/17 05:21:45;;;;;;;0.60;0.60;;;;;;;6.60;91.54;97891.81;4991834;28;20038;-81
2022/05/17 05:24:12;;;;;;;0.60;0.60;;;;;;;6.40;91.84;97873.56;5008139;28;20048;-82
2022/05/17 05:26:39;;;;;;;0.60;0.60;;;;;;;6.60;91.69;97894.50;4995363;28;20046;-82
2022/05/17 05:29:07;;;;;;;0.60;0.60;;;;;;;6.59;92.08;97878.69;5008005;28;20078;-82
2022/05/17 05:31:34;;;;;;;0.60;0.60;;;;;;;6.76;92.20;97900.94;5010324;28;20050;-82
2022/05/17 05:34:01;;;;;;;0.60;0.60;;;;;;;6.61;91.90;97869.34;5009115;28;20516;-83
2022/05/17 05:36:29;;;;;;;0.60;0.60;;;;;;;6.77;91.83;97902.53;5012577;28;20049;-82
2022/05/17 05:38:56;;;;;;;0.50;0.50;;;;;;;6.83;91.62;97900.72;5013626;28;20145;-83
2022/05/17 05:41:24;;;;;;;0.50;0.50;;;;;;;6.68;91.59;97883.38;5013434;28;20041;-82
2022/05/17 05:43:51;;;;;;;0.50;0.50;;;;;;;6.65;91.41;97875.00;5019425;28;20046;-83
2022/05/17 05:46:19;;;;;;;0.60;0.60;;;;;;;6.79;91.78;97897.75;5018827;28;20058;-83
2022/05/17 05:48:47;;;;;;;0.60;0.60;;;;;;;6.87;91.65;97901.88;5016790;28;20073;-83
2022/05/17 05:51:14;;;;;;;0.60;0.60;;;;;;;6.73;91.78;97894.19;5018060;28;20566;-85
2022/05/17 05:53:41;;;;;;;0.60;0.60;;;;;;;6.81;91.94;97903.69;5012158;28;20080;-85
2022/05/17 05:56:08;;;;;;;0.60;0.60;;;;;;;6.73;92.11;97896.03;5021738;28;20050;-84
2022/05/17 05:58:38;;;;;;;0.60;0.60;;;;;;;6.71;92.27;97893.63;5006387;28;20593;-82
2022/05/17 06:01:06;;;;;;;0.57;0.57;;;;;;;6.86;92.33;97906.44;5018920;28;20054;-81
2022/05/17 06:03:35;;;;;;;0.50;0.50;;;;;;;6.87;92.08;97902.69;5002511;28;20444;-82
2022/05/17 06:06:03;;;;;;;0.50;0.50;;;;;;;6.93;92.07;97898.19;5007795;28;20129;-82
2022/05/17 06:08:30;;;;;;;0.57;0.57;;;;;;;7.08;91.68;97919.03;5007278;28;20071;-82
2022/05/17 06:11:01;;;;;;;0.50;0.50;;;;;;;7.09;91.81;97910.75;5022548;28;20049;-82
2022/05/17 06:13:29;;;;;;;0.60;0.60;;;;;;;7.16;91.42;97921.28;5009276;28;20046;-83
2022/05/17 06:15:56;;;;;;;0.50;0.50;;;;;;;7.17;91.60;97917.56;5002771;28;20468;-83
2022/05/17 06:18:23;;;;;;;0.60;0.60;;;;;;;7.12;91.33;97920.19;5009428;28;20069;-83
2022/05/17 06:20:52;;;;;;;0.50;0.50;;;;;;;7.03;91.29;97911.72;5007822;28;20497;-83
2022/05/17 06:23:20;;;;;;;0.50;0.50;;;;;;;7.05;90.94;97923.03;5007710;28;20045;-83
2022/05/17 06:25:48;;;;;;;0.50;0.50;;;;;;;6.88;90.91;97898.13;5015306;28;20279;-82
2022/05/17 06:28:16;;;;;;;0.57;0.57;;;;;;;6.86;91.22;97900.22;5017465;28;20041;-82
2022/05/17 06:30:43;;;;;;;0.60;0.60;;;;;;;7.02;91.18;97917.38;5026328;28;20534;-83
2022/05/17 06:33:12;;;;;;;0.60;0.60;;;;;;;7.15;91.26;97927.72;5027016;28;20504;-83
2022/05/17 06:35:41;;;;;;;0.60;0.60;;;;;;;7.12;91.17;97901.41;5024715;28;20479;-83
2022/05/17 06:38:08;;;;;;;0.60;0.60;;;;;;;7.11;90.82;97905.13;5017169;28;20045;-82
2022/05/17 06:40:36;;;;;;;0.60;0.60;;;;;;;7.18;91.17;97916.50;5026290;28;20045;-82
2022/05/17 06:43:05;;;;;;;0.60;0.60;;;;;;;7.25;91.29;97905.59;5018373;28;20057;-84
2022/05/17 06:45:33;;;;;;;0.50;0.50;;;;;;;7.33;91.26;97927.41;5005194;28;20140;-83
2022/05/17 06:48:01;;;;;;;0.50;0.50;;;;;;;7.44;91.07;97930.22;5016421;28;20416;-84
2022/05/17 06:50:29;;;;;;;0.60;0.60;;;;;;;7.36;90.92;97924.22;5006210;28;20041;-82
2022/05/17 06:52:56;;;;;;;0.60;0.60;;;;;;;7.37;90.28;97927.75;5007848;28;20542;-82
2022/05/17 06:55:23;;;;;;;0.60;0.60;;;;;;;7.29;90.64;97915.56;5006525;28;20050;-82
2022/05/17 06:57:58;;;;;;;0.50;0.50;;;;;;;7.34;91.10;97923.69;4885673;28;10001306;-82
2022/05/17 07:00:26;;;;;;;0.50;0.50;;;;;;;7.27;90.82;97906.16;5008973;28;20262;-81
2022/05/17 07:02:53;;;;;;;0.60;0.60;;;;;;;7.44;91.42;97924.84;5006737;28;20065;-83
2022/05/17 07:05:21;;;;;;;0.55;0.55;;;;;;;7.38;91.43;97927.47;5006181;28;20056;-82
2022/05/17 07:07:48;;;;;;;0.60;0.60;;;;;;;7.22;90.89;97904.22;5012859;28;20615;-83
2022/05/17 07:13:13;;;;;;;0.50;0.50;;;;;;;7.25;91.17;97941.28;5027220;28;20056;-82
2022/05/17 07:15:43;;;;;;;0.50;0.50;;;;;;;7.22;91.64;97936.41;4996700;28;20501;-81
2022/05/17 07:18:12;;;;;;;0.50;0.50;;;;;;;7.12;91.47;97931.72;5007790;28;20103;-81
2022/05/17 07:20:40;;;;;;;0.50;0.50;;;;;;;7.03;91.50;97921.66;5005535;28;20046;-82
2022/05/17 07:23:07;;;;;;;0.60;0.60;;;;;;;7.17;91.91;97933.66;4998938;28;20062;-82
2022/05/17 07:25:35;;;;;;;0.50;0.50;;;;;;;7.30;91.77;97957.44;4954880;28;20046;-82
2022/05/17 07:28:04;;;;;;;0.50;0.50;;;;;;;7.20;91.32;97957.31;5004742;28;20078;-82
2022/05/17 07:30:31;;;;;;;0.45;0.45;;;;;;;7.13;91.81;97932.53;5006559;28;20050;-82
2022/05/17 07:32:58;;;;;;;0.50;0.50;;;;;;;7.29;92.23;97949.63;5000733;28;20073;-83
2022/05/17 07:35:26;;;;;;;0.50;0.50;;;;;;;7.34;92.49;97953.22;5009778;28;20507;-82
2022/05/17 07:37:55;;;;;;;0.52;0.52;;;;;;;7.29;92.52;97937.03;5000952;28;20161;-82
2022/05/17 07:40:23;;;;;;;0.50;0.50;;;;;;;7.39;92.70;97957.81;5005986;28;20086;-82
2022/05/17 07:42:52;;;;;;;0.50;0.50;;;;;;;7.42;92.18;97962.69;5008654;28;20042;-82
2022/05/17 07:45:19;;;;;;;0.52;0.52;;;;;;;7.22;92.00;97931.03;5008829;28;20571;-84
2022/05/17 07:47:47;;;;;;;0.60;0.60;;;;;;;7.36;91.61;97961.81;5005286;28;20066;-82
2022/05/17 07:50:15;;;;;;;0.60;0.60;;;;;;;7.52;91.63;97962.81;5009806;28;20081;-82
2022/05/17 07:52:43;;;;;;;0.52;0.52;;;;;;;7.49;91.20;97962.50;5010595;28;20046;-81
2022/05/17 07:55:10;;;;;;;0.50;0.50;;;;;;;7.36;91.12;97956.44;5007755;28;20064;-82
2022/05/17 07:57:40;;;;;;;0.50;0.50;;;;;;;7.38;91.40;97961.56;5008532;28;20054;-81
2022/05/17 08:00:12;;;;;;;0.50;0.50;;;;;;;7.29;91.30;97947.78;5008831;28;20054;-83
2022/05/17 08:02:44;;;;;;;0.50;0.50;;;;;;;7.22;91.68;97957.88;5003578;28;20156;-82
2022/05/17 08:05:12;;;;;;;0.60;0.60;;;;;;;7.43;91.58;97966.19;5009312;28;20061;-82
2022/05/17 08:07:39;;;;;;;0.50;0.50;;;;;;;7.42;91.02;97961.88;5007856;28;20521;-83
2022/05/17 08:10:07;;;;;;;0.50;0.50;;;;;;;7.27;91.17;97966.00;4990606;28;20054;-83
2022/05/17 08:12:34;;;;;;;0.50;0.50;;;;;;;7.24;91.60;97954.94;5009595;28;20076;-82
2022/05/17 08:15:01;;;;;;;0.50;0.50;;;;;;;7.05;92.13;97951.75;5008186;28;20389;-81
2022/05/17 08:17:29;;;;;;;0.50;0.50;;;;;;;7.14;92.01;97955.59;5007364;28;20144;-82
2022/05/17 08:19:57;;;;;;;0.50;0.50;;;;;;;7.18;92.13;97947.88;5008203;28;20133;-82
2022/05/17 08:22:24;;;;;;;0.60;0.60;;;;;;;7.26;92.33;97952.81;5023959;28;20046;-82
2022/05/17 08:27:39;;;;;;;0.60;0.60;;;;;;;8.12;91.37;97938.75;5005541;28;20054;-82
2022/05/17 08:30:15;;;;;;;0.60;0.60;;;;;;;8.40;90.10;97940.34;5007340;28;20057;-82
2022/05/17 08:33:17;;;;;;;0.60;0.60;;;;;;;8.50;88.96;97948.50;5007195;28;20057;-83
2022/05/17 08:36:00;;;;;;;0.50;0.50;;;;;;;8.58;88.35;97957.97;5005977;28;20050;-82
2022/05/17 08:38:35;;;;;;;0.50;0.50;;;;;;;8.56;89.03;97958.25;5016010;28;20049;-83
2022/05/17 08:41:30;;;;;;;0.60;0.60;;;;;;;8.49;87.79;97954.16;5007070;28;20046;-83
2022/05/17 08:44:04;;;;;;;0.50;0.50;;;;;;;8.39;87.39;97946.78;5004413;28;20061;-82
2022/05/17 08:46:35;;;;;;;0.50;0.50;;;;;;;8.39;87.41;97968.28;5005490;28;20104;-83
2022/05/17 08:49:20;;;;;;;0.50;0.50;;;;;;;8.44;87.66;97968.38;5001833;28;20050;-82
2022/05/17 08:51:56;;;;;;;0.50;0.50;;;;;;;8.25;88.07;97963.34;5006249;28;20050;-83
2022/05/17 08:54:30;;;;;;;0.50;0.50;;;;;;;8.37;88.21;97973.91;5009023;28;20052;-84
2022/05/17 08:57:15;;;;;;;0.50;0.50;;;;;;;8.46;88.10;97968.94;4991327;28;20116;-81
2022/05/17 08:59:43;;;;;;;0.50;0.50;;;;;;;8.52;88.33;97975.97;5007079;28;20057;-83
2022/05/17 09:02:17;;;;;;;0.50;0.50;;;;;;;8.35;87.92;97964.47;5000330;28;20507;-83
2022/05/17 09:05:06;;;;;;;0.50;0.50;;;;;;;8.41;87.73;97980.44;5005115;28;20060;-83
2022/05/17 09:07:50;;;;;;;0.50;0.50;;;;;;;8.45;88.45;97986.13;4991862;28;20436;-83
2022/05/17 09:10:20;;;;;;;0.52;0.52;;;;;;;8.42;87.91;97984.75;4980922;28;20061;-82
2022/05/17 09:12:58;;;;;;;0.50;0.50;;;;;;;8.35;88.16;97969.84;5004686;28;20060;-83
2022/05/17 09:15:27;;;;;;;0.50;0.50;;;;;;;8.22;88.16;97960.34;4990734;28;20054;-83
2022/05/17 09:17:57;;;;;;;0.55;0.55;;;;;;;8.29;88.59;97973.56;5007403;28;20054;-82
2022/05/17 09:20:29;;;;;;;0.50;0.50;;;;;;;8.10;88.19;97955.13;5009020;28;20622;-81
2022/05/17 09:22:58;;;;;;;0.50;0.50;;;;;;;8.01;88.06;97957.44;4994545;28;20062;-82
2022/05/17 09:25:51;;;;;;;0.50;0.50;;;;;;;8.00;88.80;97955.00;5002200;28;20080;-82
2022/05/17 09:28:23;;;;;;;0.50;0.50;;;;;;;7.96;89.26;97965.47;4998508;28;20050;-84
2022/05/17 09:31:08;;;;;;;0.50;0.50;;;;;;;7.97;89.79;97974.31;4991587;28;20506;-82
2022/05/17 09:33:38;;;;;;;0.50;0.50;;;;;;;7.91;89.77;97978.03;5004202;28;20050;-85
2022/05/17 09:36:08;;;;;;;0.50;0.50;;;;;;;7.95;89.49;97979.13;5003776;28;20515;-83
2022/05/17 09:38:38;;;;;;;0.50;0.50;;;;;;;7.99;89.32;97975.69;5007011;28;20594;-82
2022/05/17 09:41:11;;;;;;;0.50;0.50;;;;;;;7.99;89.12;97983.75;5011386;28;20586;-83
2022/05/17 09:43:45;;;;;;;0.50;0.50;;;;;;;7.96;89.12;97984.25;5010759;28;20073;-84
2022/05/17 09:46:29;;;;;;;0.50;0.50;;;;;;;7.97;89.12;97985.06;4992039;28;20156;-83
2022/05/17 09:54:45;;;;;;;0.50;0.50;;;;;;;7.86;89.51;97989.53;5004249;28;20050;-83
2022/05/17 09:57:25;;;;;;;0.50;0.50;;;;;;;7.89;89.33;97998.97;5006142;28;20092;-84
2022/05/17 10:00:08;;;;;;;0.50;0.50;;;;;;;7.73;89.27;97974.63;5003370;28;20088;-84
2022/05/17 10:02:42;;;;;;;0.50;0.50;;;;;;;7.77;88.92;97999.91;5010320;28;20116;-85
2022/05/17 10:05:17;;;;;;;0.50;0.50;;;;;;;7.68;89.28;97982.59;5024564;28;20487;-83
2022/05/17 10:08:01;;;;;;;0.50;0.50;;;;;;;7.74;89.54;97989.66;5026187;28;20053;-83
2022/05/17 10:10:33;;;;;;;0.50;0.50;;;;;;;7.71;89.05;98006.28;5007995;28;20141;-85
2022/05/17 10:13:11;;;;;;;0.50;0.50;;;;;;;7.67;88.81;97997.13;4985266;28;20191;-82
2022/05/17 10:15:39;;;;;;;0.50;0.50;;;;;;;7.50;89.44;97991.00;4992327;28;20050;-84
2022/05/17 10:18:14;;;;;;;0.50;0.50;;;;;;;7.49;89.70;97990.16;5001119;28;20052;-84
2022/05/17 10:20:46;;;;;;;0.50;0.50;;;;;;;7.56;90.05;98000.72;5004678;28;20049;-83
2022/05/17 10:23:23;;;;;;;0.50;0.50;;;;;;;7.45;90.41;97985.56;5018753;28;20455;-84
2022/05/17 10:26:19;;;;;;;0.50;0.50;;;;;;;7.52;90.47;97999.56;5006975;28;20052;-82
2022/05/17 10:28:45;;;;;;;;;;;;;;;7.50;90.51;98002.53;4986262;28;20165;-83
2022/05/17 10:31:22;;;;;;;0.50;0.50;;;;;;;7.43;90.87;97995.72;4989845;28;20018;-82
2022/05/17 10:34:15;;;;;;;0.50;0.50;;;;;;;7.39;91.00;97992.72;5001324;28;20147;-82
2022/05/17 10:36:45;;;;;;;0.50;0.50;;;;;;;7.54;91.01;98013.56;5026723;28;20397;-84
2022/05/17 10:39:22;;;;;;;0.50;0.50;;;;;;;7.63;91.30;98019.34;5027493;28;20045;-83
2022/05/17 10:41:49;;;;;;;0.50;0.50;;;;;;;7.62;91.27;98015.00;5024158;28;20045;-82
2022/05/17 10:44:20;;;;;;;0.50;0.50;;;;;;;7.40;90.92;97990.84;5017209;28;20049;-84
2022/05/17 10:46:54;;;;;;;0.50;0.50;;;;;;;7.48;91.17;98003.84;5026082;28;20050;-83
2022/05/17 10:49:56;;;;;;;0.50;0.50;;;;;;;7.62;91.35;98015.81;5018027;28;20388;-83
2022/05/17 10:52:35;;;;;;;0.50;0.50;;;;;;;7.52;91.13;98000.41;5000346;28;20451;-84
2022/05/17 10:55:38;;;;;;;0.50;0.50;;;;;;;7.49;91.02;97994.72;5019599;28;20057;-84
2022/05/17 10:58:13;;;;;;;0.50;0.50;;;;;;;7.51;90.62;97993.41;4984044;28;20072;-83
2022/05/17 11:00:46;;;;;;;0.57;0.57;;;;;;;7.63;90.89;98014.78;4999544;28;20574;-83
2022/05/17 11:03:29;;;;;;;0.50;0.50;;;;;;;7.80;91.07;98025.47;5005126;28;20096;-82
2022/05/17 11:06:11;;;;;;;0.50;0.50;;;;;;;7.80;90.70;98018.22;4999794;28;20556;-84
2022/05/17 11:08:47;;;;;;;0.50;0.50;;;;;;;7.74;90.56;98015.72;4991410;28;20053;-83
2022/05/17 11:11:33;;;;;;;0.50;0.50;;;;;;;7.79;90.23;98021.13;5005807;28;20069;-83
2022/05/17 11:14:07;;;;;;;0.50;0.50;;;;;;;7.80;89.79;98023.59;4989515;28;20046;-84
2022/05/17 11:16:44;;;;;;;0.50;0.50;;;;;;;7.85;90.01;98020.16;4999607;28;20054;-81
2022/05/17 11:19:39;;;;;;;0.50;0.50;;;;;;;7.97;89.51;98028.06;5007514;28;20144;-85
2022/05/17 11:22:18;;;;;;;0.50;0.50;;;;;;;7.98;89.10;98017.06;4987135;28;20066;-82
2022/05/17 11:25:03;;;;;;;0.52;0.52;;;;;;;8.00;89.19;98036.44;4981179;28;20165;-86
2022/05/17 11:27:36;;;;;;;0.50;0.50;;;;;;;7.98;89.39;98032.38;4989154;28;20058;-86
2022/05/17 11:30:18;;;;;;;0.40;0.40;;;;;;;7.97;89.53;98026.19;4979356;28;20134;-84
2022/05/17 11:33:06;;;;;;;0.40;0.40;;;;;;;8.15;89.51;98040.34;4959120;28;20070;-85
2022/05/17 11:35:33;;;;;;;0.50;0.50;;;;;;;8.02;89.17;98041.56;4988554;28;20054;-84
2022/05/17 11:38:05;;;;;;;0.50;0.50;;;;;;;7.94;89.00;98026.69;4988328;28;20050;-83
2022/05/17 11:40:49;;;;;;;0.50;0.50;;;;;;;8.09;89.21;98041.38;4973082;28;20492;-84
2022/05/17 11:43:42;;;;;;;0.50;0.50;;;;;;;7.98;88.99;98024.31;4977237;28;20137;-83
2022/05/17 11:46:25;;;;;;;0.50;0.50;;;;;;;8.10;88.80;98042.97;4986344;28;20043;-83
2022/05/17 11:49:12;;;;;;;0.50;0.50;;;;;;;8.08;88.26;98045.09;4969876;28;20482;-83
2022/05/17 11:51:59;;;;;;;0.50;0.50;;;;;;;8.09;88.51;98042.19;4992472;28;20057;-83
2022/05/17 11:54:57;;;;;;;0.50;0.50;;;;;;;8.17;88.08;98035.53;4987915;28;20057;-83
2022/05/17 11:57:25;;;;;;;0.52;0.52;;;;;;;8.33;87.73;98041.88;4916805;29;20060;-83
2022/05/17 11:59:53;;;;;;;0.50;0.50;;;;;;;8.37;86.97;98048.38;4925309;29;20048;-85
2022/05/17 12:02:40;;;;;;;0.60;0.60;;;;;;;8.20;86.31;98016.22;4922989;29;20056;-84
2022/05/17 12:05:10;;;;;;;0.50;0.50;;;;;;;8.44;86.32;98051.72;4943041;29;20056;-83
2022/05/17 12:07:38;;;;;;;0.50;0.50;;;;;;;8.54;86.28;98040.25;4951433;29;20158;-86
2022/05/17 12:10:14;;;;;;;0.50;0.50;;;;;;;8.66;85.81;98043.59;4906739;29;20058;-86
2022/05/17 12:12:53;;;;;;;0.50;0.50;;;;;;;8.50;85.84;98034.56;4933329;29;20056;-84
2022/05/17 12:15:44;;;;;;;0.50;0.50;;;;;;;8.57;85.95;98043.25;4913543;29;20144;-85